sensor_id;sensor_type;location;lat;lon;timestamp;P1;durP1;ratioP1;P2;durP2;ratioP2
18224;SDS011;9237;48.590;8.854;2023-08-21T00:01:25;0.50;;;0.50;;
18224;SDS011;9237;48.590;8.854;2023-08-21T00:03:52;0.50;;;0.50;;
18224;SDS011;9237;48.590;8.854;2023-08-21T00:06:18;0.50;;;0.50;;
18224;SDS011;9237;48.590;8.854;2023-08-21T00:08:45;0.50;;;0.50;;
18224;SDS011;9237;48.590;8.854;2023-08-21T00:11:12;0.50;;;0.50;;
18224;SDS011;9237;48.590;8.854;2023-08-21T00:13:39;0.50;;;0.50;;
18224;SDS011;9237;48.590;8.854;2023-08-21T00:16:11;0.50;;;0.50;;
18224;SDS011;9237;48.590;8.854;2023-08-21T00:18:37;0.50;;;0.50;;
18224;SDS011;9237;48.590;8.854;2023-08-21T00:21:04;0.50;;;0.50;;
18224;SDS011;9237;48.590;8.854;2023-08-21T00:23:31;0.50;;;0.50;;
18224;SDS011;9237;48.590;8.854;2023-08-21T00:25:58;0.50;;;0.50;;
18224;SDS011;9237;48.590;8.854;2023-08-21T00:28:25;0.50;;;0.50;;
18224;SDS011;9237;48.590;8.854;2023-08-21T00:30:59;0.50;;;0.50;;
18224;SDS011;9237;48.590;8.854;2023-08-21T00:33:28;0.50;;;0.50;;
18224;SDS011;9237;48.590;8.854;2023-08-21T00:35:55;0.50;;;0.50;;
18224;SDS011;9237;48.590;8.854;2023-08-21T00:38:21;0.60;;;0.60;;
18224;SDS011;9237;48.590;8.854;2023-08-21T00:40:48;0.60;;;0.60;;
18224;SDS011;9237;48.590;8.854;2023-08-21T00:43:15;0.50;;;0.50;;
18224;SDS011;9237;48.590;8.854;2023-08-21T00:45:43;0.50;;;0.50;;
18224;SDS011;9237;48.590;8.854;2023-08-21T00:48:11;0.60;;;0.60;;
18224;SDS011;9237;48.590;8.854;2023-08-21T00:50:40;0.50;;;0.50;;
18224;SDS011;9237;48.590;8.854;2023-08-21T00:53:07;0.50;;;0.50;;
18224;SDS011;9237;48.590;8.854;2023-08-21T00:55:34;0.50;;;0.50;;
18224;SDS011;9237;48.590;8.854;2023-08-21T00:58:02;0.50;;;0.50;;
18224;SDS011;9237;48.590;8.854;2023-08-21T01:00:30;0.57;;;0.57;;
18224;SDS011;9237;48.590;8.854;2023-08-21T01:02:57;0.55;;;0.55;;
18224;SDS011;9237;48.590;8.854;2023-08-21T01:05:23;0.50;;;0.50;;
18224;SDS011;9237;48.590;8.854;2023-08-21T01:07:53;0.60;;;0.60;;
18224;SDS011;9237;48.590;8.854;2023-08-21T01:10:27;0.50;;;0.50;;
18224;SDS011;9237;48.590;8.854;2023-08-21T01:13:04;0.50;;;0.50;;
18224;SDS011;9237;48.590;8.854;2023-08-21T01:15:37;0.50;;;0.50;;
18224;SDS011;9237;48.590;8.854;2023-08-21T01:18:05;0.50;;;0.50;;
18224;SDS011;9237;48.590;8.854;2023-08-21T01:20:33;0.50;;;0.50;;
18224;SDS011;9237;48.590;8.854;2023-08-21T01:23:04;0.60;;;0.60;;
18224;SDS011;9237;48.590;8.854;2023-08-21T01:25:33;0.60;;;0.60;;
18224;SDS011;9237;48.590;8.854;2023-08-21T01:28:00;0.50;;;0.50;;
18224;SDS011;9237;48.590;8.854;2023-08-21T01:30:27;0.50;;;0.50;;
18224;SDS011;9237;48.590;8.854;2023-08-21T01:32:59;0.50;;;0.50;;
18224;SDS011;9237;48.590;8.854;2023-08-21T01:35:30;0.50;;;0.50;;
18224;SDS011;9237;48.590;8.854;2023-08-21T01:37:59;0.50;;;0.50;;
18224;SDS011;9237;48.590;8.854;2023-08-21T01:40:26;0.50;;;0.50;;
18224;SDS011;9237;48.590;8.854;2023-08-21T01:42:55;0.50;;;0.50;;
18224;SDS011;9237;48.590;8.854;2023-08-21T01:45:21;0.50;;;0.50;;
18224;SDS011;9237;48.590;8.854;2023-08-21T01:47:48;0.50;;;0.50;;
18224;SDS011;9237;48.590;8.854;2023-08-21T01:50:15;0.50;;;0.50;;
18224;SDS011;9237;48.590;8.854;2023-08-21T01:52:42;0.50;;;0.50;;
18224;SDS011;9237;48.590;8.854;2023-08-21T01:55:09;0.50;;;0.50;;
18224;SDS011;9237;48.590;8.854;2023-08-21T01:57:36;0.50;;;0.50;;
18224;SDS011;9237;48.590;8.854;2023-08-21T02:00:06;0.50;;;0.50;;
18224;SDS011;9237;48.590;8.854;2023-08-21T02:02:33;0.50;;;0.50;;
18224;SDS011;9237;48.590;8.854;2023-08-21T02:05:00;0.50;;;0.50;;
18224;SDS011;9237;48.590;8.854;2023-08-21T02:07:28;0.50;;;0.50;;
18224;SDS011;9237;48.590;8.854;2023-08-21T02:09:55;0.50;;;0.50;;
18224;SDS011;9237;48.590;8.854;2023-08-21T02:12:22;0.50;;;0.50;;
18224;SDS011;9237;48.590;8.854;2023-08-21T02:14:48;0.50;;;0.50;;
18224;SDS011;9237;48.590;8.854;2023-08-21T02:17:16;0.52;;;0.52;;
18224;SDS011;9237;48.590;8.854;2023-08-21T02:19:43;0.50;;;0.50;;
18224;SDS011;9237;48.590;8.854;2023-08-21T02:22:10;0.50;;;0.50;;
18224;SDS011;9237;48.590;8.854;2023-08-21T02:24:37;0.50;;;0.50;;
18224;SDS011;9237;48.590;8.854;2023-08-21T02:27:04;0.50;;;0.50;;
18224;SDS011;9237;48.590;8.854;2023-08-21T02:29:30;0.50;;;0.50;;
18224;SDS011;9237;48.590;8.854;2023-08-21T02:31:57;0.57;;;0.57;;
18224;SDS011;9237;48.590;8.854;2023-08-21T02:34:26;0.53;;;0.53;;
18224;SDS011;9237;48.590;8.854;2023-08-21T02:36:53;0.60;;;0.60;;
18224;SDS011;9237;48.590;8.854;2023-08-21T02:39:19;0.50;;;0.50;;
18224;SDS011;9237;48.590;8.854;2023-08-21T02:41:46;0.50;;;0.50;;
18224;SDS011;9237;48.590;8.854;2023-08-21T02:44:13;0.60;;;0.60;;
18224;SDS011;9237;48.590;8.854;2023-08-21T02:46:40;0.53;;;0.53;;
18224;SDS011;9237;48.590;8.854;2023-08-21T02:49:06;0.50;;;0.50;;
18224;SDS011;9237;48.590;8.854;2023-08-21T02:51:34;0.60;;;0.60;;
18224;SDS011;9237;48.590;8.854;2023-08-21T02:54:01;0.60;;;0.60;;
18224;SDS011;9237;48.590;8.854;2023-08-21T02:56:28;0.50;;;0.50;;
18224;SDS011;9237;48.590;8.854;2023-08-21T02:58:55;0.50;;;0.50;;
18224;SDS011;9237;48.590;8.854;2023-08-21T03:01:22;0.60;;;0.60;;
18224;SDS011;9237;48.590;8.854;2023-08-21T03:03:49;0.60;;;0.60;;
18224;SDS011;9237;48.590;8.854;2023-08-21T03:06:15;0.60;;;0.60;;
18224;SDS011;9237;48.590;8.854;2023-08-21T03:08:43;0.60;;;0.60;;
18224;SDS011;9237;48.590;8.854;2023-08-21T03:11:10;0.60;;;0.60;;
18224;SDS011;9237;48.590;8.854;2023-08-21T03:13:37;0.50;;;0.50;;
18224;SDS011;9237;48.590;8.854;2023-08-21T03:16:04;0.60;;;0.60;;
18224;SDS011;9237;48.590;8.854;2023-08-21T03:18:31;0.60;;;0.60;;
18224;SDS011;9237;48.590;8.854;2023-08-21T03:20:58;0.60;;;0.60;;
18224;SDS011;9237;48.590;8.854;2023-08-21T03:23:25;0.50;;;0.50;;
18224;SDS011;9237;48.590;8.854;2023-08-21T03:25:53;0.50;;;0.50;;
18224;SDS011;9237;48.590;8.854;2023-08-21T03:28:20;0.60;;;0.60;;
18224;SDS011;9237;48.590;8.854;2023-08-21T03:30:47;0.50;;;0.50;;
18224;SDS011;9237;48.590;8.854;2023-08-21T03:33:13;0.50;;;0.50;;
18224;SDS011;9237;48.590;8.854;2023-08-21T03:35:40;0.60;;;0.60;;
18224;SDS011;9237;48.590;8.854;2023-08-21T03:38:07;0.50;;;0.50;;
18224;SDS011;9237;48.590;8.854;2023-08-21T03:40:33;0.50;;;0.50;;
18224;SDS011;9237;48.590;8.854;2023-08-21T03:43:02;0.50;;;0.50;;
18224;SDS011;9237;48.590;8.854;2023-08-21T03:45:29;0.50;;;0.50;;
18224;SDS011;9237;48.590;8.854;2023-08-21T03:47:55;0.53;;;0.53;;
18224;SDS011;9237;48.590;8.854;2023-08-21T03:50:22;0.50;;;0.50;;
18224;SDS011;9237;48.590;8.854;2023-08-21T03:52:49;0.60;;;0.60;;
18224;SDS011;9237;48.590;8.854;2023-08-21T03:55:16;0.60;;;0.60;;
18224;SDS011;9237;48.590;8.854;2023-08-21T03:57:42;0.50;;;0.50;;
18224;SDS011;9237;48.590;8.854;2023-08-21T04:00:11;0.50;;;0.50;;
18224;SDS011;9237;48.590;8.854;2023-08-21T04:02:38;0.60;;;0.60;;
18224;SDS011;9237;48.590;8.854;2023-08-21T04:05:05;0.50;;;0.50;;
18224;SDS011;9237;48.590;8.854;2023-08-21T04:07:32;0.50;;;0.50;;
18224;SDS011;9237;48.590;8.854;2023-08-21T04:09:59;0.50;;;0.50;;
18224;SDS011;9237;48.590;8.854;2023-08-21T04:12:26;0.60;;;0.60;;
18224;SDS011;9237;48.590;8.854;2023-08-21T04:14:53;0.53;;;0.53;;
18224;SDS011;9237;48.590;8.854;2023-08-21T04:17:21;0.60;;;0.60;;
18224;SDS011;9237;48.590;8.854;2023-08-21T04:19:48;0.60;;;0.60;;
18224;SDS011;9237;48.590;8.854;2023-08-21T04:22:15;0.60;;;0.60;;
18224;SDS011;9237;48.590;8.854;2023-08-21T04:24:42;0.50;;;0.50;;
18224;SDS011;9237;48.590;8.854;2023-08-21T04:27:09;0.50;;;0.50;;
18224;SDS011;9237;48.590;8.854;2023-08-21T04:29:35;0.60;;;0.60;;
18224;SDS011;9237;48.590;8.854;2023-08-21T04:32:02;0.60;;;0.60;;
18224;SDS011;9237;48.590;8.854;2023-08-21T04:34:31;0.60;;;0.60;;
18224;SDS011;9237;48.590;8.854;2023-08-21T04:36:58;0.60;;;0.60;;
18224;SDS011;9237;48.590;8.854;2023-08-21T04:39:25;0.53;;;0.53;;
18224;SDS011;9237;48.590;8.854;2023-08-21T04:41:52;0.60;;;0.60;;
18224;SDS011;9237;48.590;8.854;2023-08-21T04:44:18;0.60;;;0.60;;
18224;SDS011;9237;48.590;8.854;2023-08-21T04:46:47;0.60;;;0.60;;
18224;SDS011;9237;48.590;8.854;2023-08-21T04:49:14;0.60;;;0.60;;
18224;SDS011;9237;48.590;8.854;2023-08-21T04:51:42;0.60;;;0.60;;
18224;SDS011;9237;48.590;8.854;2023-08-21T04:54:09;0.50;;;0.50;;
18224;SDS011;9237;48.590;8.854;2023-08-21T04:56:36;0.60;;;0.60;;
18224;SDS011;9237;48.590;8.854;2023-08-21T04:59:02;0.60;;;0.60;;
18224;SDS011;9237;48.590;8.854;2023-08-21T05:01:47;0.60;;;0.60;;
18224;SDS011;9237;48.590;8.854;2023-08-21T05:04:14;0.60;;;0.60;;
18224;SDS011;9237;48.590;8.854;2023-08-21T05:06:40;0.60;;;0.60;;
18224;SDS011;9237;48.590;8.854;2023-08-21T05:09:09;0.50;;;0.50;;
18224;SDS011;9237;48.590;8.854;2023-08-21T05:11:35;0.50;;;0.50;;
18224;SDS011;9237;48.590;8.854;2023-08-21T05:14:02;0.60;;;0.60;;
18224;SDS011;9237;48.590;8.854;2023-08-21T05:16:29;0.50;;;0.50;;
18224;SDS011;9237;48.590;8.854;2023-08-21T05:18:56;0.50;;;0.50;;
18224;SDS011;9237;48.590;8.854;2023-08-21T05:21:22;0.50;;;0.50;;
18224;SDS011;9237;48.590;8.854;2023-08-21T05:23:51;0.60;;;0.60;;
18224;SDS011;9237;48.590;8.854;2023-08-21T05:26:18;0.50;;;0.50;;
18224;SDS011;9237;48.590;8.854;2023-08-21T05:28:45;0.50;;;0.50;;
18224;SDS011;9237;48.590;8.854;2023-08-21T05:31:12;0.50;;;0.50;;
18224;SDS011;9237;48.590;8.854;2023-08-21T05:33:39;0.50;;;0.50;;
18224;SDS011;9237;48.590;8.854;2023-08-21T05:36:06;0.50;;;0.50;;
18224;SDS011;9237;48.590;8.854;2023-08-21T05:38:32;0.50;;;0.50;;
18224;SDS011;9237;48.590;8.854;2023-08-21T05:41:00;0.60;;;0.60;;
18224;SDS011;9237;48.590;8.854;2023-08-21T05:43:27;0.57;;;0.57;;
18224;SDS011;9237;48.590;8.854;2023-08-21T05:45:54;0.50;;;0.50;;
18224;SDS011;9237;48.590;8.854;2023-08-21T05:48:21;0.50;;;0.50;;
18224;SDS011;9237;48.590;8.854;2023-08-21T05:50:50;0.50;;;0.50;;
18224;SDS011;9237;48.590;8.854;2023-08-21T05:53:17;0.50;;;0.50;;
18224;SDS011;9237;48.590;8.854;2023-08-21T05:55:44;0.50;;;0.50;;
18224;SDS011;9237;48.590;8.854;2023-08-21T05:58:12;0.50;;;0.50;;
18224;SDS011;9237;48.590;8.854;2023-08-21T06:00:39;0.50;;;0.50;;
18224;SDS011;9237;48.590;8.854;2023-08-21T06:03:06;0.50;;;0.50;;
18224;SDS011;9237;48.590;8.854;2023-08-21T06:05:32;0.40;;;0.40;;
18224;SDS011;9237;48.590;8.854;2023-08-21T06:07:59;0.50;;;0.50;;
18224;SDS011;9237;48.590;8.854;2023-08-21T06:10:26;0.40;;;0.40;;
18224;SDS011;9237;48.590;8.854;2023-08-21T06:12:53;0.40;;;0.40;;
18224;SDS011;9237;48.590;8.854;2023-08-21T06:15:21;0.40;;;0.40;;
18224;SDS011;9237;48.590;8.854;2023-08-21T06:17:48;0.40;;;0.40;;
18224;SDS011;9237;48.590;8.854;2023-08-21T06:20:15;0.40;;;0.40;;
18224;SDS011;9237;48.590;8.854;2023-08-21T06:22:43;0.40;;;0.40;;
18224;SDS011;9237;48.590;8.854;2023-08-21T06:25:10;0.40;;;0.40;;
18224;SDS011;9237;48.590;8.854;2023-08-21T06:27:37;0.40;;;0.40;;
18224;SDS011;9237;48.590;8.854;2023-08-21T06:30:05;0.40;;;0.40;;
18224;SDS011;9237;48.590;8.854;2023-08-21T06:32:44;0.40;;;0.40;;
18224;SDS011;9237;48.590;8.854;2023-08-21T06:35:10;0.50;;;0.50;;
18224;SDS011;9237;48.590;8.854;2023-08-21T06:37:39;0.40;;;0.40;;
18224;SDS011;9237;48.590;8.854;2023-08-21T06:40:06;0.30;;;0.30;;
18224;SDS011;9237;48.590;8.854;2023-08-21T06:42:33;0.38;;;0.38;;
18224;SDS011;9237;48.590;8.854;2023-08-21T06:45:02;0.35;;;0.35;;
18224;SDS011;9237;48.590;8.854;2023-08-21T06:47:29;0.40;;;0.40;;
18224;SDS011;9237;48.590;8.854;2023-08-21T06:49:57;0.40;;;0.40;;
18224;SDS011;9237;48.590;8.854;2023-08-21T06:52:25;0.30;;;0.30;;
18224;SDS011;9237;48.590;8.854;2023-08-21T06:54:52;0.40;;;0.40;;
18224;SDS011;9237;48.590;8.854;2023-08-21T06:57:18;0.40;;;0.40;;
18224;SDS011;9237;48.590;8.854;2023-08-21T06:59:45;0.40;;;0.40;;
18224;SDS011;9237;48.590;8.854;2023-08-21T07:02:12;0.30;;;0.30;;
18224;SDS011;9237;48.590;8.854;2023-08-21T07:04:39;0.30;;;0.30;;
18224;SDS011;9237;48.590;8.854;2023-08-21T07:07:07;0.38;;;0.38;;
18224;SDS011;9237;48.590;8.854;2023-08-21T07:09:33;0.30;;;0.30;;
18224;SDS011;9237;48.590;8.854;2023-08-21T07:12:00;0.30;;;0.30;;
18224;SDS011;9237;48.590;8.854;2023-08-21T07:14:28;0.30;;;0.30;;
18224;SDS011;9237;48.590;8.854;2023-08-21T07:16:54;0.30;;;0.30;;
18224;SDS011;9237;48.590;8.854;2023-08-21T07:19:21;0.30;;;0.30;;
18224;SDS011;9237;48.590;8.854;2023-08-21T07:21:48;0.30;;;0.30;;
18224;SDS011;9237;48.590;8.854;2023-08-21T07:24:16;0.30;;;0.30;;
18224;SDS011;9237;48.590;8.854;2023-08-21T07:26:43;0.30;;;0.30;;
18224;SDS011;9237;48.590;8.854;2023-08-21T07:29:13;0.22;;;0.22;;
18224;SDS011;9237;48.590;8.854;2023-08-21T07:31:39;0.25;;;0.25;;
18224;SDS011;9237;48.590;8.854;2023-08-21T07:34:06;0.30;;;0.30;;
18224;SDS011;9237;48.590;8.854;2023-08-21T07:36:33;0.30;;;0.30;;
18224;SDS011;9237;48.590;8.854;2023-08-21T07:39:00;0.20;;;0.20;;
18224;SDS011;9237;48.590;8.854;2023-08-21T07:41:28;0.28;;;0.28;;
18224;SDS011;9237;48.590;8.854;2023-08-21T07:43:55;0.20;;;0.20;;
18224;SDS011;9237;48.590;8.854;2023-08-21T07:46:22;0.20;;;0.20;;
18224;SDS011;9237;48.590;8.854;2023-08-21T07:48:49;0.30;;;0.30;;
18224;SDS011;9237;48.590;8.854;2023-08-21T07:51:15;0.20;;;0.20;;
18224;SDS011;9237;48.590;8.854;2023-08-21T07:53:42;0.28;;;0.28;;
18224;SDS011;9237;48.590;8.854;2023-08-21T07:56:09;0.28;;;0.28;;
18224;SDS011;9237;48.590;8.854;2023-08-21T07:58:37;0.20;;;0.20;;
18224;SDS011;9237;48.590;8.854;2023-08-21T08:01:04;0.20;;;0.20;;
18224;SDS011;9237;48.590;8.854;2023-08-21T08:03:31;0.25;;;0.25;;
18224;SDS011;9237;48.590;8.854;2023-08-21T08:05:57;0.20;;;0.20;;
18224;SDS011;9237;48.590;8.854;2023-08-21T08:08:24;0.20;;;0.20;;
18224;SDS011;9237;48.590;8.854;2023-08-21T08:10:51;0.20;;;0.20;;
18224;SDS011;9237;48.590;8.854;2023-08-21T08:13:18;0.20;;;0.20;;
18224;SDS011;9237;48.590;8.854;2023-08-21T08:15:46;0.20;;;0.20;;
18224;SDS011;9237;48.590;8.854;2023-08-21T08:18:13;0.22;;;0.22;;
18224;SDS011;9237;48.590;8.854;2023-08-21T08:20:40;0.20;;;0.20;;
18224;SDS011;9237;48.590;8.854;2023-08-21T08:23:07;0.20;;;0.20;;
18224;SDS011;9237;48.590;8.854;2023-08-21T08:25:34;0.20;;;0.20;;
18224;SDS011;9237;48.590;8.854;2023-08-21T08:28:01;0.20;;;0.20;;
18224;SDS011;9237;48.590;8.854;2023-08-21T08:30:28;0.10;;;0.10;;
18224;SDS011;9237;48.590;8.854;2023-08-21T08:32:56;0.20;;;0.20;;
18224;SDS011;9237;48.590;8.854;2023-08-21T08:35:22;0.20;;;0.20;;
18224;SDS011;9237;48.590;8.854;2023-08-21T08:37:49;0.10;;;0.10;;
18224;SDS011;9237;48.590;8.854;2023-08-21T08:40:16;0.10;;;0.10;;
18224;SDS011;9237;48.590;8.854;2023-08-21T08:42:43;0.20;;;0.20;;
18224;SDS011;9237;48.590;8.854;2023-08-21T08:45:10;0.20;;;0.20;;
18224;SDS011;9237;48.590;8.854;2023-08-21T08:47:40;0.20;;;0.20;;
18224;SDS011;9237;48.590;8.854;2023-08-21T08:50:08;0.15;;;0.15;;
18224;SDS011;9237;48.590;8.854;2023-08-21T08:52:35;0.20;;;0.20;;
18224;SDS011;9237;48.590;8.854;2023-08-21T08:55:03;0.20;;;0.20;;
18224;SDS011;9237;48.590;8.854;2023-08-21T08:57:31;0.10;;;0.10;;
18224;SDS011;9237;48.590;8.854;2023-08-21T08:59:58;0.20;;;0.20;;
18224;SDS011;9237;48.590;8.854;2023-08-21T09:02:25;0.20;;;0.20;;
18224;SDS011;9237;48.590;8.854;2023-08-21T09:04:52;0.20;;;0.20;;
18224;SDS011;9237;48.590;8.854;2023-08-21T09:07:20;0.20;;;0.20;;
18224;SDS011;9237;48.590;8.854;2023-08-21T09:09:48;0.20;;;0.20;;
18224;SDS011;9237;48.590;8.854;2023-08-21T09:12:17;0.20;;;0.20;;
18224;SDS011;9237;48.590;8.854;2023-08-21T09:14:45;0.20;;;0.20;;
18224;SDS011;9237;48.590;8.854;2023-08-21T09:17:12;0.17;;;0.17;;
18224;SDS011;9237;48.590;8.854;2023-08-21T09:19:40;0.20;;;0.20;;
18224;SDS011;9237;48.590;8.854;2023-08-21T09:22:08;0.10;;;0.10;;
18224;SDS011;9237;48.590;8.854;2023-08-21T09:24:37;0.20;;;0.20;;
18224;SDS011;9237;48.590;8.854;2023-08-21T09:27:04;0.20;;;0.20;;
18224;SDS011;9237;48.590;8.854;2023-08-21T09:29:38;0.13;;;0.13;;
18224;SDS011;9237;48.590;8.854;2023-08-21T09:32:06;0.15;;;0.15;;
18224;SDS011;9237;48.590;8.854;2023-08-21T09:34:33;0.20;;;0.20;;
18224;SDS011;9237;48.590;8.854;2023-08-21T09:37:01;0.10;;;0.10;;
18224;SDS011;9237;48.590;8.854;2023-08-21T09:39:32;0.20;;;0.20;;
18224;SDS011;9237;48.590;8.854;2023-08-21T09:42:01;0.10;;;0.10;;
18224;SDS011;9237;48.590;8.854;2023-08-21T09:44:34;0.10;;;0.10;;
18224;SDS011;9237;48.590;8.854;2023-08-21T09:47:03;0.20;;;0.20;;
18224;SDS011;9237;48.590;8.854;2023-08-21T09:49:34;0.20;;;0.20;;
18224;SDS011;9237;48.590;8.854;2023-08-21T09:52:02;0.20;;;0.20;;
18224;SDS011;9237;48.590;8.854;2023-08-21T09:54:30;0.20;;;0.20;;
18224;SDS011;9237;48.590;8.854;2023-08-21T09:57:01;0.10;;;0.10;;
18224;SDS011;9237;48.590;8.854;2023-08-21T09:59:29;0.20;;;0.20;;
18224;SDS011;9237;48.590;8.854;2023-08-21T10:01:56;0.20;;;0.20;;
18224;SDS011;9237;48.590;8.854;2023-08-21T10:04:25;0.20;;;0.20;;
18224;SDS011;9237;48.590;8.854;2023-08-21T10:06:51;0.20;;;0.20;;
18224;SDS011;9237;48.590;8.854;2023-08-21T10:09:21;0.20;;;0.20;;
18224;SDS011;9237;48.590;8.854;2023-08-21T10:11:50;0.20;;;0.20;;
18224;SDS011;9237;48.590;8.854;2023-08-21T10:14:20;0.20;;;0.20;;
18224;SDS011;9237;48.590;8.854;2023-08-21T10:16:48;0.20;;;0.20;;
18224;SDS011;9237;48.590;8.854;2023-08-21T10:19:15;0.20;;;0.20;;
18224;SDS011;9237;48.590;8.854;2023-08-21T10:21:45;0.20;;;0.20;;
18224;SDS011;9237;48.590;8.854;2023-08-21T10:24:13;0.20;;;0.20;;
18224;SDS011;9237;48.590;8.854;2023-08-21T10:26:53;0.20;;;0.20;;
18224;SDS011;9237;48.590;8.854;2023-08-21T10:29:21;0.20;;;0.20;;
18224;SDS011;9237;48.590;8.854;2023-08-21T10:31:47;0.20;;;0.20;;
18224;SDS011;9237;48.590;8.854;2023-08-21T10:34:30;0.10;;;0.10;;
18224;SDS011;9237;48.590;8.854;2023-08-21T10:37:08;0.20;;;0.20;;
18224;SDS011;9237;48.590;8.854;2023-08-21T10:39:37;0.20;;;0.20;;
18224;SDS011;9237;48.590;8.854;2023-08-21T10:42:05;0.10;;;0.10;;
18224;SDS011;9237;48.590;8.854;2023-08-21T10:44:45;0.10;;;0.10;;
18224;SDS011;9237;48.590;8.854;2023-08-21T10:47:18;0.10;;;0.10;;
18224;SDS011;9237;48.590;8.854;2023-08-21T10:49:46;0.20;;;0.20;;
18224;SDS011;9237;48.590;8.854;2023-08-21T10:52:14;0.20;;;0.20;;
18224;SDS011;9237;48.590;8.854;2023-08-21T10:54:45;0.17;;;0.17;;
18224;SDS011;9237;48.590;8.854;2023-08-21T10:57:12;0.10;;;0.10;;
18224;SDS011;9237;48.590;8.854;2023-08-21T10:59:49;0.13;;;0.13;;
18224;SDS011;9237;48.590;8.854;2023-08-21T11:02:23;0.20;;;0.20;;
18224;SDS011;9237;48.590;8.854;2023-08-21T11:04:50;0.10;;;0.10;;
18224;SDS011;9237;48.590;8.854;2023-08-21T11:07:17;0.20;;;0.20;;
18224;SDS011;9237;48.590;8.854;2023-08-21T11:09:44;0.20;;;0.20;;
18224;SDS011;9237;48.590;8.854;2023-08-21T11:12:13;0.10;;;0.10;;
18224;SDS011;9237;48.590;8.854;2023-08-21T11:14:41;0.20;;;0.20;;
18224;SDS011;9237;48.590;8.854;2023-08-21T11:17:10;0.10;;;0.10;;
18224;SDS011;9237;48.590;8.854;2023-08-21T11:19:37;0.10;;;0.10;;
18224;SDS011;9237;48.590;8.854;2023-08-21T11:22:05;0.20;;;0.20;;
18224;SDS011;9237;48.590;8.854;2023-08-21T11:24:39;0.20;;;0.20;;
18224;SDS011;9237;48.590;8.854;2023-08-21T11:27:07;0.20;;;0.20;;
18224;SDS011;9237;48.590;8.854;2023-08-21T11:29:38;0.20;;;0.20;;
18224;SDS011;9237;48.590;8.854;2023-08-21T11:32:10;0.10;;;0.10;;
18224;SDS011;9237;48.590;8.854;2023-08-21T11:34:38;0.10;;;0.10;;
18224;SDS011;9237;48.590;8.854;2023-08-21T11:37:06;0.10;;;0.10;;
18224;SDS011;9237;48.590;8.854;2023-08-21T11:39:42;0.10;;;0.10;;
18224;SDS011;9237;48.590;8.854;2023-08-21T11:42:10;0.17;;;0.17;;
18224;SDS011;9237;48.590;8.854;2023-08-21T11:44:42;0.10;;;0.10;;
18224;SDS011;9237;48.590;8.854;2023-08-21T11:47:12;0.20;;;0.20;;
18224;SDS011;9237;48.590;8.854;2023-08-21T11:49:40;0.20;;;0.20;;
18224;SDS011;9237;48.590;8.854;2023-08-21T11:52:07;0.10;;;0.10;;
18224;SDS011;9237;48.590;8.854;2023-08-21T11:54:34;0.20;;;0.20;;
18224;SDS011;9237;48.590;8.854;2023-08-21T11:57:05;0.10;;;0.10;;
18224;SDS011;9237;48.590;8.854;2023-08-21T11:59:32;0.10;;;0.10;;
18224;SDS011;9237;48.590;8.854;2023-08-21T12:01:59;0.20;;;0.20;;
18224;SDS011;9237;48.590;8.854;2023-08-21T12:04:28;0.13;;;0.13;;
18224;SDS011;9237;48.590;8.854;2023-08-21T12:06:55;0.10;;;0.10;;
18224;SDS011;9237;48.590;8.854;2023-08-21T12:09:21;0.10;;;0.10;;
18224;SDS011;9237;48.590;8.854;2023-08-21T12:11:48;0.10;;;0.10;;
18224;SDS011;9237;48.590;8.854;2023-08-21T12:14:15;0.10;;;0.10;;
18224;SDS011;9237;48.590;8.854;2023-08-21T12:16:42;0.20;;;0.20;;
18224;SDS011;9237;48.590;8.854;2023-08-21T12:19:09;0.10;;;0.10;;
18224;SDS011;9237;48.590;8.854;2023-08-21T12:21:38;0.10;;;0.10;;
18224;SDS011;9237;48.590;8.854;2023-08-21T12:24:05;0.20;;;0.20;;
18224;SDS011;9237;48.590;8.854;2023-08-21T12:26:32;0.20;;;0.20;;
18224;SDS011;9237;48.590;8.854;2023-08-21T12:28:59;0.10;;;0.10;;
18224;SDS011;9237;48.590;8.854;2023-08-21T12:31:27;0.10;;;0.10;;
18224;SDS011;9237;48.590;8.854;2023-08-21T12:33:54;0.20;;;0.20;;
18224;SDS011;9237;48.590;8.854;2023-08-21T12:36:21;0.10;;;0.10;;
18224;SDS011;9237;48.590;8.854;2023-08-21T12:38:49;0.17;;;0.17;;
18224;SDS011;9237;48.590;8.854;2023-08-21T12:41:16;0.20;;;0.20;;
18224;SDS011;9237;48.590;8.854;2023-08-21T12:43:43;0.20;;;0.20;;
18224;SDS011;9237;48.590;8.854;2023-08-21T12:46:09;0.20;;;0.20;;
18224;SDS011;9237;48.590;8.854;2023-08-21T12:48:36;0.20;;;0.20;;
18224;SDS011;9237;48.590;8.854;2023-08-21T12:51:03;0.10;;;0.10;;
18224;SDS011;9237;48.590;8.854;2023-08-21T12:53:30;0.10;;;0.10;;
18224;SDS011;9237;48.590;8.854;2023-08-21T12:55:58;0.10;;;0.10;;
18224;SDS011;9237;48.590;8.854;2023-08-21T12:58:25;0.10;;;0.10;;
18224;SDS011;9237;48.590;8.854;2023-08-21T13:00:52;0.20;;;0.20;;
18224;SDS011;9237;48.590;8.854;2023-08-21T13:03:19;0.10;;;0.10;;
18224;SDS011;9237;48.590;8.854;2023-08-21T13:05:46;0.10;;;0.10;;
18224;SDS011;9237;48.590;8.854;2023-08-21T13:08:12;0.10;;;0.10;;
18224;SDS011;9237;48.590;8.854;2023-08-21T13:10:39;0.10;;;0.10;;
18224;SDS011;9237;48.590;8.854;2023-08-21T13:13:08;0.10;;;0.10;;
18224;SDS011;9237;48.590;8.854;2023-08-21T13:15:35;0.10;;;0.10;;
18224;SDS011;9237;48.590;8.854;2023-08-21T13:18:02;0.15;;;0.15;;
18224;SDS011;9237;48.590;8.854;2023-08-21T13:20:29;0.10;;;0.10;;
18224;SDS011;9237;48.590;8.854;2023-08-21T13:22:56;0.20;;;0.20;;
18224;SDS011;9237;48.590;8.854;2023-08-21T13:25:23;0.10;;;0.10;;
18224;SDS011;9237;48.590;8.854;2023-08-21T13:27:50;0.20;;;0.20;;
18224;SDS011;9237;48.590;8.854;2023-08-21T13:30:19;0.20;;;0.20;;
18224;SDS011;9237;48.590;8.854;2023-08-21T13:32:47;0.20;;;0.20;;
18224;SDS011;9237;48.590;8.854;2023-08-21T13:35:14;0.20;;;0.20;;
18224;SDS011;9237;48.590;8.854;2023-08-21T13:37:41;0.20;;;0.20;;
18224;SDS011;9237;48.590;8.854;2023-08-21T13:40:08;0.20;;;0.20;;
18224;SDS011;9237;48.590;8.854;2023-08-21T13:42:37;0.20;;;0.20;;
18224;SDS011;9237;48.590;8.854;2023-08-21T13:45:06;0.20;;;0.20;;
18224;SDS011;9237;48.590;8.854;2023-08-21T13:47:36;0.20;;;0.20;;
18224;SDS011;9237;48.590;8.854;2023-08-21T13:50:03;0.17;;;0.17;;
18224;SDS011;9237;48.590;8.854;2023-08-21T13:52:31;0.10;;;0.10;;
18224;SDS011;9237;48.590;8.854;2023-08-21T13:54:59;0.20;;;0.20;;
18224;SDS011;9237;48.590;8.854;2023-08-21T13:57:26;0.10;;;0.10;;
18224;SDS011;9237;48.590;8.854;2023-08-21T13:59:53;0.10;;;0.10;;
18224;SDS011;9237;48.590;8.854;2023-08-21T14:02:20;0.10;;;0.10;;
18224;SDS011;9237;48.590;8.854;2023-08-21T14:04:49;0.15;;;0.15;;
18224;SDS011;9237;48.590;8.854;2023-08-21T14:07:16;0.17;;;0.17;;
18224;SDS011;9237;48.590;8.854;2023-08-21T14:09:43;0.10;;;0.10;;
18224;SDS011;9237;48.590;8.854;2023-08-21T14:12:10;0.20;;;0.20;;
18224;SDS011;9237;48.590;8.854;2023-08-21T14:14:36;0.17;;;0.17;;
18224;SDS011;9237;48.590;8.854;2023-08-21T14:17:03;0.20;;;0.20;;
18224;SDS011;9237;48.590;8.854;2023-08-21T14:19:30;0.20;;;0.20;;
18224;SDS011;9237;48.590;8.854;2023-08-21T14:21:58;0.20;;;0.20;;
18224;SDS011;9237;48.590;8.854;2023-08-21T14:24:26;0.20;;;0.20;;
18224;SDS011;9237;48.590;8.854;2023-08-21T14:26:53;0.20;;;0.20;;
18224;SDS011;9237;48.590;8.854;2023-08-21T14:29:18;0.20;;;0.20;;
18224;SDS011;9237;48.590;8.854;2023-08-21T14:31:45;0.20;;;0.20;;
18224;SDS011;9237;48.590;8.854;2023-08-21T14:34:13;0.20;;;0.20;;
18224;SDS011;9237;48.590;8.854;2023-08-21T14:36:40;0.20;;;0.20;;
18224;SDS011;9237;48.590;8.854;2023-08-21T14:39:08;0.20;;;0.20;;
18224;SDS011;9237;48.590;8.854;2023-08-21T14:41:36;0.20;;;0.20;;
18224;SDS011;9237;48.590;8.854;2023-08-21T14:44:03;0.20;;;0.20;;
18224;SDS011;9237;48.590;8.854;2023-08-21T14:46:30;0.20;;;0.20;;
18224;SDS011;9237;48.590;8.854;2023-08-21T14:48:58;0.20;;;0.20;;
18224;SDS011;9237;48.590;8.854;2023-08-21T14:51:25;0.20;;;0.20;;
18224;SDS011;9237;48.590;8.854;2023-08-21T14:53:51;0.10;;;0.10;;
18224;SDS011;9237;48.590;8.854;2023-08-21T14:56:20;0.20;;;0.20;;
18224;SDS011;9237;48.590;8.854;2023-08-21T14:58:47;0.10;;;0.10;;
18224;SDS011;9237;48.590;8.854;2023-08-21T15:01:14;0.20;;;0.20;;
18224;SDS011;9237;48.590;8.854;2023-08-21T15:03:41;0.20;;;0.20;;